Time;durP1;ratioP1;P1;durP2;ratioP2;P2;SDS_P1;SDS_P2;PMS_P1;PMS_P2;Temp;Humidity;BMP_temperature;BMP_pressure;BME280_temperature;BME280_humidity;BME280_pressure;Samples;Min_cycle;Max_cycle;Signal;HPM_P1;HPM_P2
2023/08/04 00:00:24;;;;;;;3.47;1.73;;;;;;;16.61;100.00;99737.84;5076438;28;20044;-80
2023/08/04 00:02:52;;;;;;;3.33;1.60;;;;;;;16.61;100.00;99743.19;5091739;28;20052;-81
2023/08/04 00:05:24;;;;;;;2.67;1.40;;;;;;;16.60;100.00;99747.69;5070981;28;20048;-81
2023/08/04 00:07:54;;;;;;;3.00;1.58;;;;;;;16.57;100.00;99741.75;5061740;28;20047;-81
2023/08/04 00:10:25;;;;;;;4.20;1.55;;;;;;;16.68;100.00;99747.13;5081145;28;20345;-80
2023/08/04 00:12:53;;;;;;;2.40;1.27;;;;;;;16.49;100.00;99719.19;5073449;28;20058;-81
2023/08/04 00:15:21;;;;;;;4.03;1.30;;;;;;;16.44;100.00;99726.72;5067778;28;20036;-80
2023/08/04 00:17:51;;;;;;;4.15;1.30;;;;;;;16.66;100.00;99757.09;5073738;28;20407;-82
2023/08/04 00:20:19;;;;;;;3.38;1.48;;;;;;;16.65;100.00;99760.72;5075963;28;20055;-82
2023/08/04 00:22:50;;;;;;;4.00;1.42;;;;;;;16.63;100.00;99755.50;5048385;28;20159;-81
2023/08/04 00:25:18;;;;;;;3.25;1.17;;;;;;;16.63;100.00;99755.50;5073896;28;20052;-82
2023/08/04 00:27:47;;;;;;;1.63;1.20;;;;;;;16.65;100.00;99760.72;5088561;28;20071;-82
2023/08/04 00:30:15;;;;;;;3.47;1.48;;;;;;;16.60;100.00;99757.53;5058864;28;20059;-82
2023/08/04 00:32:43;;;;;;;3.05;1.50;;;;;;;16.64;100.00;99764.38;5069200;28;20071;-82
2023/08/04 00:35:12;;;;;;;2.50;1.20;;;;;;;16.68;100.00;99771.19;5074738;28;20130;-82
2023/08/04 00:37:40;;;;;;;1.92;1.10;;;;;;;16.67;100.00;99764.97;5077753;28;20119;-82
2023/08/04 00:40:12;;;;;;;4.80;1.58;;;;;;;16.66;100.00;99771.31;5069489;28;20048;-81
2023/08/04 00:42:40;;;;;;;;;;;;;;;16.66;100.00;99773.97;5055276;28;20027;-80
2023/08/04 00:45:10;;;;;;;3.38;1.02;;;;;;;16.62;100.00;99761.78;5091024;28;19920;-81
2023/08/04 00:47:39;;;;;;;2.55;1.13;;;;;;;16.58;100.00;99763.00;5065461;28;20072;-81
2023/08/04 00:50:09;;;;;;;2.40;1.27;;;;;;;16.65;100.00;99766.06;5075379;28;20050;-82
2023/08/04 00:52:44;;;;;;;1.88;1.10;;;;;;;16.65;100.00;99766.06;5089864;28;20068;-82
2023/08/04 00:55:14;;;;;;;3.10;1.20;;;;;;;16.59;100.00;99764.72;5065774;28;20058;-81
2023/08/04 00:57:43;;;;;;;2.25;1.15;;;;;;;16.56;100.00;99756.09;5050504;28;20025;-81
2023/08/04 01:00:14;;;;;;;3.80;1.33;;;;;;;16.52;100.00;99762.69;5073993;28;20093;-80
2023/08/04 01:02:42;;;;;;;3.03;1.13;;;;;;;16.48;100.00;99765.59;5050167;28;20037;-82
2023/08/04 01:05:11;;;;;;;1.23;1.10;;;;;;;16.25;100.00;99741.69;5069992;28;20127;-82
2023/08/04 01:07:48;;;;;;;1.55;1.10;;;;;;;16.43;100.00;99764.25;5054368;28;20067;-80
2023/08/04 01:10:25;;;;;;;5.35;1.17;;;;;;;16.48;100.00;99764.75;5061181;28;20053;-82
2023/08/04 01:12:58;;;;;;;1.88;1.13;;;;;;;16.49;100.00;99767.28;5026738;28;20048;-82
2023/08/04 01:15:27;;;;;;;2.22;0.90;;;;;;;16.51;100.00;99764.50;5049460;28;20041;-81
2023/08/04 01:17:56;;;;;;;2.75;1.10;;;;;;;16.52;100.00;99770.69;5047933;28;20052;-81
2023/08/04 01:20:26;;;;;;;1.38;1.10;;;;;;;16.52;100.00;99771.53;5066810;28;20048;-82
2023/08/04 01:23:01;;;;;;;1.08;0.90;;;;;;;16.44;100.00;99772.16;5042186;28;20053;-82
2023/08/04 01:25:35;;;;;;;2.80;1.00;;;;;;;16.40;100.00;99768.03;5063781;28;20036;-80
2023/08/04 01:28:06;;;;;;;4.68;1.10;;;;;;;16.33;100.00;99753.47;5082775;28;20048;-81
2023/08/04 01:30:36;;;;;;;2.63;0.80;;;;;;;16.45;100.00;99771.19;5056296;28;20136;-79
2023/08/04 01:33:05;;;;;;;2.17;1.08;;;;;;;16.45;100.00;99775.69;5033401;28;20060;-81
2023/08/04 01:35:35;;;;;;;4.53;1.00;;;;;;;16.43;100.00;99773.13;5052113;28;20040;-81
2023/08/04 01:38:04;;;;;;;3.97;1.30;;;;;;;16.36;100.00;99781.78;5037493;28;20417;-80
2023/08/04 01:40:32;;;;;;;2.17;1.10;;;;;;;16.09;100.00;99748.28;5042535;28;20052;-80
2023/08/04 01:43:04;;;;;;;1.20;0.85;;;;;;;16.23;100.00;99762.34;5045636;28;20133;-82
2023/08/04 01:45:32;;;;;;;2.25;1.00;;;;;;;16.34;100.00;99784.56;5047218;28;20040;-81
2023/08/04 01:48:00;;;;;;;4.10;1.48;;;;;;;16.24;100.00;99761.38;5069304;28;20040;-80
2023/08/04 01:50:28;;;;;;;1.92;1.42;;;;;;;16.20;100.00;99763.47;5057541;28;20070;-81
2023/08/04 01:52:56;;;;;;;3.30;1.45;;;;;;;16.02;100.00;99735.53;5032889;28;20071;-80
2023/08/04 01:55:25;;;;;;;3.60;1.60;;;;;;;16.23;100.00;99787.22;5054658;28;20083;-80
2023/08/04 01:57:54;;;;;;;2.90;1.85;;;;;;;16.19;100.00;99784.94;5053257;28;20051;-81
2023/08/04 02:00:22;;;;;;;4.70;1.60;;;;;;;16.13;100.00;99787.13;5046391;28;20040;-81
2023/08/04 02:02:50;;;;;;;4.05;1.50;;;;;;;16.08;100.00;99788.44;5066568;28;20060;-81
2023/08/04 02:05:20;;;;;;;3.85;1.67;;;;;;;16.04;100.00;99787.88;5040666;28;20048;-84
2023/08/04 02:07:47;;;;;;;3.88;1.45;;;;;;;15.95;100.00;99790.41;5054369;28;20055;-81
2023/08/04 02:10:16;;;;;;;2.50;1.50;;;;;;;15.93;100.00;99798.53;5046174;28;20047;-81
2023/08/04 02:12:46;;;;;;;4.15;2.45;;;;;;;15.39;100.00;99704.91;5062303;28;20052;-81
2023/08/04 02:15:14;;;;;;;2.88;2.13;;;;;;;15.88;100.00;99794.53;5048206;28;20044;-80
2023/08/04 02:17:43;;;;;;;3.92;1.70;;;;;;;15.87;100.00;99793.69;5058689;28;20056;-81
2023/08/04 02:20:12;;;;;;;2.58;1.50;;;;;;;15.84;100.00;99799.25;5046297;28;20071;-81
2023/08/04 02:22:39;;;;;;;5.25;2.00;;;;;;;15.85;100.00;99797.44;5051365;28;20041;-78
2023/08/04 02:25:11;;;;;;;6.18;4.75;;;;;;;15.87;100.00;99806.19;5057903;28;20076;-79
2023/08/04 02:27:39;;;;;;;3.15;2.03;;;;;;;15.58;100.00;99760.41;5051638;28;20049;-79
2023/08/04 02:30:11;;;;;;;3.45;1.90;;;;;;;15.78;100.00;99797.06;5033566;28;20048;-81
2023/08/04 02:32:40;;;;;;;2.33;1.40;;;;;;;15.80;100.00;99803.13;5052006;28;20148;-79
2023/08/04 02:35:10;;;;;;;3.55;1.65;;;;;;;15.81;100.00;99810.16;5058386;28;20056;-80
2023/08/04 02:37:40;;;;;;;2.90;1.70;;;;;;;15.75;100.00;99795.47;5057159;28;20033;-80
2023/08/04 02:40:13;;;;;;;3.85;2.03;;;;;;;15.75;100.00;99791.94;5071290;28;20130;-79
2023/08/04 02:42:42;;;;;;;2.85;1.98;;;;;;;15.84;100.00;99809.94;5066911;28;20079;-80
2023/08/04 02:45:13;;;;;;;2.08;1.85;;;;;;;15.83;100.00;99804.72;5062250;28;20052;-81
2023/08/04 02:47:41;;;;;;;6.85;2.00;;;;;;;15.83;100.00;99808.22;5057760;28;20102;-79
2023/08/04 02:50:10;;;;;;;3.83;1.80;;;;;;;15.86;100.00;99809.81;5066338;28;20052;-80
2023/08/04 02:52:37;;;;;;;2.10;1.90;;;;;;;15.76;100.00;99799.84;5048366;28;20826;-83
2023/08/04 02:55:06;;;;;;;5.03;2.15;;;;;;;15.51;100.00;99761.81;5053999;28;20139;-81
2023/08/04 02:57:36;;;;;;;2.53;2.10;;;;;;;15.73;100.00;99802.78;5057994;28;20132;-81
2023/08/04 03:00:05;;;;;;;2.30;2.10;;;;;;;15.60;100.00;99777.97;5067883;28;20044;-80
2023/08/04 03:02:35;;;;;;;4.57;2.22;;;;;;;15.77;100.00;99811.38;5073882;28;20036;-79
2023/08/04 03:05:03;;;;;;;3.40;2.80;;;;;;;15.79;100.00;99815.63;5069137;28;20072;-79
2023/08/04 03:07:34;;;;;;;6.93;3.10;;;;;;;15.77;100.00;99812.22;5059618;28;20045;-78
2023/08/04 03:10:02;;;;;;;6.47;3.47;;;;;;;15.70;100.00;99799.47;5069536;28;20143;-81
2023/08/04 03:12:31;;;;;;;3.47;3.17;;;;;;;15.71;100.00;99793.19;5053562;28;20279;-80
2023/08/04 03:14:58;;;;;;;4.28;3.20;;;;;;;15.79;100.00;99814.78;5055580;28;20048;-81
2023/08/04 03:17:28;;;;;;;5.47;3.83;;;;;;;15.69;100.00;99792.44;5072711;28;20131;-79
2023/08/04 03:19:58;;;;;;;5.38;4.05;;;;;;;15.81;100.00;99812.84;5059079;28;20036;-79
2023/08/04 03:22:26;;;;;;;7.45;4.53;;;;;;;15.68;100.00;99801.41;5052869;28;20064;-81
2023/08/04 03:24:55;;;;;;;9.70;4.40;;;;;;;15.61;100.00;99801.03;5065123;28;20080;-80
2023/08/04 03:27:25;;;;;;;5.93;4.97;;;;;;;15.68;100.00;99815.63;5101313;28;20054;-79
2023/08/04 03:29:58;;;;;;;5.97;4.38;;;;;;;15.61;100.00;99811.69;5090841;28;20069;-80
2023/08/04 03:32:27;;;;;;;5.85;4.80;;;;;;;15.61;100.00;99817.03;5077055;28;20116;-78
2023/08/04 03:34:55;;;;;;;8.65;4.72;;;;;;;15.48;100.00;99796.72;5058710;28;20052;-81
2023/08/04 03:37:26;;;;;;;6.22;5.18;;;;;;;15.57;100.00;99814.75;5063838;28;20044;-80
2023/08/04 03:39:54;;;;;;;8.13;5.93;;;;;;;15.36;100.00;99785.19;5054728;28;20048;-81
2023/08/04 03:42:22;;;;;;;7.90;5.85;;;;;;;15.53;100.00;99810.56;5050064;28;20037;-81
2023/08/04 03:44:53;;;;;;;6.00;5.40;;;;;;;15.59;100.00;99823.47;5051392;28;20048;-79
2023/08/04 03:47:22;;;;;;;6.80;5.45;;;;;;;15.53;100.00;99824.78;5076472;28;20373;-80
2023/08/04 03:49:50;;;;;;;6.60;5.90;;;;;;;15.46;100.00;99826.19;5063215;28;20112;-81
2023/08/04 03:52:18;;;;;;;10.90;5.90;;;;;;;15.38;100.00;99809.94;5048727;28;20094;-81
2023/08/04 03:54:48;;;;;;;8.15;6.20;;;;;;;15.47;100.00;99829.72;5073287;28;20060;-81
2023/08/04 03:57:16;;;;;;;9.57;5.60;;;;;;;15.42;100.00;99838.09;5098587;28;20052;-81
2023/08/04 03:59:44;;;;;;;11.48;7.07;;;;;;;15.19;100.00;99804.28;5075951;28;20044;-81
2023/08/04 04:02:12;;;;;;;11.18;7.00;;;;;;;15.18;100.00;99810.56;5076111;28;20048;-81
2023/08/04 04:04:41;;;;;;;9.48;6.75;;;;;;;14.97;100.00;99781.88;5075168;28;20051;-81
2023/08/04 04:07:09;;;;;;;8.85;6.88;;;;;;;15.13;100.00;99810.06;5071375;28;20115;-79
2023/08/04 04:09:37;;;;;;;13.55;7.05;;;;;;;15.37;100.00;99841.09;5079890;28;20039;-79
2023/08/04 04:12:10;;;;;;;9.25;6.82;;;;;;;15.24;100.00;99818.13;5100352;28;20032;-79
2023/08/04 04:14:38;;;;;;;9.05;6.97;;;;;;;15.39;100.00;99844.50;5074444;28;20040;-80
2023/08/04 04:17:06;;;;;;;8.70;6.70;;;;;;;15.34;100.00;99843.97;5072884;28;20075;-81
2023/08/04 04:19:34;;;;;;;10.00;7.47;;;;;;;15.32;100.00;99842.41;5076243;28;20044;-82
2023/08/04 04:22:02;;;;;;;10.48;7.32;;;;;;;15.16;100.00;99825.84;5098413;28;20059;-82
2023/08/04 04:24:32;;;;;;;9.90;7.30;;;;;;;15.29;100.00;99853.28;5071638;28;20044;-82
2023/08/04 04:27:00;;;;;;;14.57;8.07;;;;;;;15.33;100.00;99857.44;5057346;28;20261;-83
2023/08/04 04:29:30;;;;;;;11.18;7.70;;;;;;;15.42;100.00;99854.91;5070013;28;20135;-82
2023/08/04 04:31:58;;;;;;;12.40;7.85;;;;;;;15.47;100.00;99862.56;5082211;28;20055;-83
2023/08/04 04:34:27;;;;;;;8.88;7.53;;;;;;;15.44;100.00;99857.47;5073753;28;20044;-80
2023/08/04 04:36:58;;;;;;;10.57;7.93;;;;;;;15.48;100.00;99861.63;5059774;28;20095;-81
2023/08/04 04:39:27;;;;;;;12.02;7.95;;;;;;;15.57;100.00;99868.97;5081360;28;20021;-80
2023/08/04 04:41:56;;;;;;;11.55;7.97;;;;;;;15.53;100.00;99854.13;5055832;28;20434;-81
2023/08/04 04:44:25;;;;;;;12.90;7.75;;;;;;;15.60;100.00;99871.38;5062298;28;20108;-80
2023/08/04 04:46:55;;;;;;;9.02;7.45;;;;;;;15.58;100.00;99870.69;5089459;28;20040;-81
2023/08/04 04:49:23;;;;;;;11.90;7.90;;;;;;;15.59;100.00;99872.34;5093540;28;20115;-80
2023/08/04 04:51:51;;;;;;;10.20;7.05;;;;;;;15.58;100.00;99870.69;5086848;28;20103;-82
2023/08/04 04:54:21;;;;;;;;;;;;;;;15.65;100.00;99882.56;5097599;28;20046;-80
2023/08/04 04:56:51;;;;;;;10.20;7.05;;;;;;;15.66;100.00;99884.28;5071281;28;19924;-80
2023/08/04 04:59:18;;;;;;;12.15;8.02;;;;;;;15.63;100.00;99889.00;5072353;28;20044;-80
2023/08/04 05:01:48;;;;;;;12.07;8.63;;;;;;;15.32;100.00;99842.41;5073205;28;20041;-82
2023/08/04 05:04:18;;;;;;;9.45;7.72;;;;;;;15.54;100.00;99876.31;5033497;28;20071;-79
2023/08/04 05:06:46;;;;;;;11.50;7.93;;;;;;;15.54;100.00;99881.66;5080372;28;20104;-78
2023/08/04 05:09:15;;;;;;;11.38;8.27;;;;;;;15.52;100.00;99873.75;5051244;28;20044;-77
2023/08/04 05:11:46;;;;;;;12.38;8.55;;;;;;;15.60;100.00;99884.72;5071111;28;20055;-78
2023/08/04 05:14:15;;;;;;;10.25;8.02;;;;;;;15.52;100.00;99870.25;5042033;28;20075;-77
2023/08/04 05:16:45;;;;;;;11.05;8.60;;;;;;;15.55;100.00;99881.59;5048797;28;20040;-77
2023/08/04 05:19:13;;;;;;;12.70;8.68;;;;;;;15.58;100.00;99886.69;5035801;28;20464;-77
2023/08/04 05:21:42;;;;;;;12.75;8.98;;;;;;;15.52;100.00;99892.44;5036128;28;20052;-77
2023/08/04 05:24:12;;;;;;;12.45;8.93;;;;;;;15.45;100.00;99897.38;5044323;28;20415;-77
2023/08/04 05:26:40;;;;;;;11.30;8.38;;;;;;;15.44;100.00;99895.69;5032638;28;20381;-76
2023/08/04 05:29:07;;;;;;;10.77;8.18;;;;;;;15.52;100.00;99895.13;5065459;28;20826;-77
2023/08/04 05:31:35;;;;;;;12.23;8.30;;;;;;;15.56;100.00;99895.78;5050811;28;20044;-76
2023/08/04 05:34:03;;;;;;;12.35;8.80;;;;;;;15.62;100.00;99898.81;5059186;28;20095;-76
2023/08/04 05:36:31;;;;;;;11.73;9.02;;;;;;;15.67;100.00;99902.00;5041543;28;20048;-77
2023/08/04 05:39:00;;;;;;;12.55;9.05;;;;;;;15.70;100.00;99901.78;5069084;28;20040;-77
2023/08/04 05:41:28;;;;;;;11.68;8.13;;;;;;;15.71;100.00;99898.13;5049532;28;20036;-77
2023/08/04 05:43:56;;;;;;;11.98;8.82;;;;;;;15.78;100.00;99907.34;5045869;28;20420;-77
2023/08/04 05:46:24;;;;;;;11.20;8.95;;;;;;;15.83;100.00;99906.16;5064937;28;20041;-78
2023/08/04 05:48:52;;;;;;;12.43;9.48;;;;;;;15.73;100.00;99890.00;5052749;28;20509;-78
2023/08/04 05:51:20;;;;;;;12.07;8.90;;;;;;;15.79;100.00;99890.38;5043565;28;20051;-76
2023/08/04 05:53:48;;;;;;;12.65;9.23;;;;;;;15.95;100.00;99916.75;5034850;28;20116;-78
2023/08/04 05:56:17;;;;;;;12.82;8.90;;;;;;;15.99;100.00;99918.22;5045764;28;20183;-76
2023/08/04 05:58:45;;;;;;;12.73;9.45;;;;;;;16.02;100.00;99922.50;5070782;28;20105;-77
2023/08/04 06:01:13;;;;;;;13.15;8.93;;;;;;;16.00;100.00;99921.75;5072980;28;20066;-77
2023/08/04 06:03:40;;;;;;;10.85;8.60;;;;;;;15.88;100.00;99914.69;5073331;28;20111;-76
2023/08/04 06:06:08;;;;;;;12.98;9.73;;;;;;;16.00;100.00;99927.94;5064294;28;20083;-77
2023/08/04 06:08:36;;;;;;;12.57;9.35;;;;;;;16.06;100.00;99934.63;5085923;28;20043;-77
2023/08/04 06:11:06;;;;;;;12.05;8.95;;;;;;;16.06;100.00;99926.59;5089320;28;20051;-77
2023/08/04 06:13:36;;;;;;;11.65;8.40;;;;;;;16.16;100.00;99932.09;5067295;28;20036;-77
2023/08/04 06:16:04;;;;;;;16.95;9.70;;;;;;;16.22;100.00;99935.13;5063812;28;20036;-77
2023/08/04 06:18:32;;;;;;;12.38;8.90;;;;;;;16.22;100.00;99935.13;5070895;28;20503;-76
2023/08/04 06:21:00;;;;;;;13.10;8.13;;;;;;;16.23;100.00;99942.19;5055047;28;20076;-75
2023/08/04 06:23:30;;;;;;;12.10;9.20;;;;;;;16.30;100.00;99938.06;5088797;28;20051;-75
2023/08/04 06:25:58;;;;;;;13.70;10.38;;;;;;;16.30;100.00;99938.06;5083342;28;20101;-76
2023/08/04 06:28:26;;;;;;;14.40;9.90;;;;;;;16.35;100.00;99941.25;5075515;28;20032;-76
2023/08/04 06:30:56;;;;;;;12.32;9.30;;;;;;;16.40;100.00;99939.06;5068624;28;20140;-76
2023/08/04 06:33:24;;;;;;;16.42;11.63;;;;;;;16.44;100.00;99935.16;5070850;28;20117;-76
2023/08/04 06:35:54;;;;;;;14.23;10.57;;;;;;;16.47;100.00;99940.28;5058894;28;20416;-76
2023/08/04 06:38:21;;;;;;;12.60;9.93;;;;;;;16.41;100.00;99932.72;5074193;28;20060;-76
2023/08/04 06:40:51;;;;;;;15.68;10.30;;;;;;;16.42;100.00;99945.13;5067387;28;20111;-77
2023/08/04 06:43:20;;;;;;;13.30;10.05;;;;;;;16.39;100.00;99949.84;5069916;28;20040;-78
2023/08/04 06:45:49;;;;;;;14.45;10.85;;;;;;;16.44;100.00;99951.22;5067977;28;20075;-77
2023/08/04 06:48:21;;;;;;;16.20;11.10;;;;;;;16.47;100.00;99964.34;5076249;28;20067;-76
2023/08/04 06:50:49;;;;;;;16.08;11.70;;;;;;;16.45;100.00;99952.06;5075277;28;20055;-77
2023/08/04 06:53:17;;;;;;;18.02;12.25;;;;;;;16.46;100.00;99965.31;5064572;28;20156;-77
2023/08/04 06:55:47;;;;;;;15.85;11.55;;;;;;;16.48;100.00;99970.53;5069167;28;20062;-77
2023/08/04 06:58:15;;;;;;;16.83;11.85;;;;;;;16.44;100.00;99961.03;5057932;28;20059;-77
2023/08/04 07:00:45;;;;;;;14.95;11.15;;;;;;;16.60;100.00;99971.38;5076246;28;20044;-77
2023/08/04 07:03:14;;;;;;;18.75;12.20;;;;;;;16.62;100.00;99958.75;5057290;28;20055;-77
2023/08/04 07:05:44;;;;;;;18.97;11.70;;;;;;;16.77;100.00;99970.94;5064464;28;20448;-76
2023/08/04 07:08:12;;;;;;;17.00;11.32;;;;;;;16.79;100.00;99969.00;5091017;28;20884;-77
2023/08/04 07:10:40;;;;;;;14.90;11.75;;;;;;;16.88;100.00;99973.59;5076682;28;20143;-78
2023/08/04 07:13:09;;;;;;;16.95;12.50;;;;;;;16.87;100.00;99973.72;5075633;28;20059;-77
2023/08/04 07:15:38;;;;;;;15.95;11.35;;;;;;;16.85;100.00;99979.19;5070466;28;20052;-77
2023/08/04 07:18:06;;;;;;;15.00;12.13;;;;;;;16.79;100.00;99969.00;5057505;28;20500;-77
2023/08/04 07:20:35;;;;;;;16.60;11.85;;;;;;;16.81;100.00;99985.78;5075851;28;20036;-77
2023/08/04 07:23:04;;;;;;;15.57;11.07;;;;;;;16.80;100.00;99982.25;5073934;28;20079;-77
2023/08/04 07:25:32;;;;;;;17.13;12.00;;;;;;;16.76;100.00;99975.44;5044457;28;20060;-77
2023/08/04 07:28:03;;;;;;;16.10;11.25;;;;;;;16.82;100.00;99977.63;5049591;28;20124;-77
2023/08/04 07:30:32;;;;;;;16.88;12.30;;;;;;;16.89;100.00;99985.16;5093034;28;20618;-77
2023/08/04 07:33:04;;;;;;;14.40;10.98;;;;;;;16.97;100.00;99980.91;5059292;28;20082;-77
2023/08/04 07:35:32;;;;;;;17.83;12.07;;;;;;;16.99;100.00;99983.47;5065338;28;20132;-76
2023/08/04 07:38:02;;;;;;;18.73;12.55;;;;;;;16.98;100.00;99998.66;5064446;28;20054;-77
2023/08/04 07:40:32;;;;;;;17.00;12.32;;;;;;;16.97;100.00;100002.31;5070061;28;20051;-77
2023/08/04 07:43:00;;;;;;;14.25;11.40;;;;;;;17.02;100.00;99997.44;5071352;28;20506;-77
2023/08/04 07:45:29;;;;;;;19.27;12.07;;;;;;;17.13;100.00;100012.63;5088464;28;20079;-78
2023/08/04 07:47:58;;;;;;;17.40;12.23;;;;;;;17.20;100.00;100005.81;5078980;28;20055;-78
2023/08/04 07:50:30;;;;;;;18.38;11.43;;;;;;;17.18;100.00;99987.19;5055868;28;20043;-80
2023/08/04 07:52:58;;;;;;;15.73;11.48;;;;;;;17.41;100.00;100009.44;5097315;28;20071;-78
2023/08/04 07:55:28;;;;;;;16.58;11.35;;;;;;;17.33;100.00;99997.63;5068511;28;20058;-78
2023/08/04 07:58:01;;;;;;;17.73;11.98;;;;;;;17.31;100.00;100002.28;5073882;28;20044;-79
2023/08/04 08:00:29;;;;;;;18.50;12.32;;;;;;;17.17;100.00;99990.84;5058406;28;20044;-77
2023/08/04 08:02:57;;;;;;;16.65;11.70;;;;;;;17.12;100.00;100005.59;5068626;28;20139;-79
2023/08/04 08:05:26;;;;;;;14.70;11.85;;;;;;;17.18;100.00;100005.94;5068662;28;20044;-78
2023/08/04 08:07:54;;;;;;;17.90;13.10;;;;;;;17.37;100.00;100015.16;5073290;28;20043;-79
2023/08/04 08:10:22;;;;;;;19.95;12.75;;;;;;;17.48;100.00;100007.09;5074877;28;20071;-77
2023/08/04 08:12:52;;;;;;;18.77;12.60;;;;;;;17.57;100.00;100011.72;5093432;28;20044;-79
2023/08/04 08:15:22;;;;;;;15.48;11.73;;;;;;;17.67;100.00;100017.19;5065563;28;20051;-78
2023/08/04 08:17:51;;;;;;;17.67;12.35;;;;;;;17.21;100.00;99918.34;5046830;28;20505;-80
2023/08/04 08:20:19;;;;;;;15.90;12.48;;;;;;;17.62;100.00;99985.41;5075057;28;20089;-78
2023/08/04 08:22:47;;;;;;;16.35;12.38;;;;;;;17.75;100.00;100014.72;5075908;28;20047;-80
2023/08/04 08:25:15;;;;;;;18.73;12.70;;;;;;;17.82;100.00;100011.41;5066662;28;20059;-80
2023/08/04 08:27:43;;;;;;;18.05;12.85;;;;;;;17.64;100.00;100006.72;5070355;28;20046;-78
2023/08/04 08:30:12;;;;;;;18.67;12.60;;;;;;;17.63;100.00;100027.25;5095222;28;20044;-78
2023/08/04 08:32:42;;;;;;;16.17;12.23;;;;;;;17.69;100.00;100023.25;5076171;28;20052;-78
2023/08/04 08:35:11;;;;;;;17.27;12.88;;;;;;;17.70;100.00;100015.09;5099790;28;20146;-78
2023/08/04 08:37:39;;;;;;;18.40;13.82;;;;;;;17.81;100.00;100024.91;5095693;28;20040;-78
2023/08/04 08:40:10;;;;;;;17.13;12.63;;;;;;;17.82;100.00;100011.41;5072387;28;20058;-79
2023/08/04 08:42:39;;;;;;;18.42;13.45;;;;;;;17.87;100.00;100027.09;5105802;28;20044;-79
2023/08/04 08:45:08;;;;;;;20.13;11.60;;;;;;;17.62;100.00;100025.56;5076680;28;20342;-79
2023/08/04 08:47:38;;;;;;;16.95;11.52;;;;;;;17.31;100.00;100027.22;5070043;28;20051;-78
2023/08/04 08:50:12;;;;;;;20.37;13.27;;;;;;;17.40;100.00;100036.31;5060164;28;20156;-77
2023/08/04 08:52:43;;;;;;;18.45;12.57;;;;;;;17.48;100.00;100026.69;5088974;28;20485;-77
2023/08/04 08:55:12;;;;;;;17.45;12.95;;;;;;;17.60;100.00;100027.53;5089966;28;20075;-78
2023/08/04 08:57:43;;;;;;;19.27;13.05;;;;;;;17.68;100.00;100025.09;5045169;28;20116;-80
2023/08/04 09:00:13;;;;;;;20.77;12.60;;;;;;;17.78;100.00;100023.38;5078090;28;20270;-77
2023/08/04 09:02:44;;;;;;;19.40;12.50;;;;;;;17.90;100.00;100031.34;5052037;28;20044;-79
2023/08/04 09:05:16;;;;;;;15.60;11.27;;;;;;;18.00;100.00;100035.81;5086039;28;20075;-79
2023/08/04 09:07:44;;;;;;;15.35;10.80;;;;;;;17.94;100.00;100033.66;5047715;28;20079;-79
2023/08/04 09:10:12;;;;;;;16.73;11.90;;;;;;;17.99;100.00;100035.94;5067567;28;20104;-79
2023/08/04 09:12:48;;;;;;;15.57;11.85;;;;;;;17.94;100.00;100036.34;5070348;28;20071;-79
2023/08/04 09:15:15;;;;;;;14.95;9.48;;;;;;;17.85;100.00;100045.97;5045751;28;20048;-80
2023/08/04 09:17:44;;;;;;;14.23;9.75;;;;;;;17.76;100.00;100046.75;5060574;28;20086;-79
2023/08/04 09:20:30;;;;;;;13.07;9.40;;;;;;;17.80;100.00;100039.28;5071749;28;20032;-77
2023/08/04 09:22:58;;;;;;;11.32;8.48;;;;;;;17.88;100.00;100042.19;5034630;28;20143;-79
2023/08/04 09:25:26;;;;;;;11.07;9.25;;;;;;;17.88;100.00;100044.88;5043172;28;20055;-79
2023/08/04 09:27:55;;;;;;;15.13;8.35;;;;;;;17.86;100.00;100047.69;5046483;28;20052;-78
2023/08/04 09:30:25;;;;;;;11.13;7.68;;;;;;;17.76;100.00;100048.56;5049798;28;20041;-79
2023/08/04 09:32:53;;;;;;;9.55;7.85;;;;;;;17.58;100.00;100045.53;5052442;28;20032;-79
2023/08/04 09:35:21;;;;;;;10.75;7.10;;;;;;;17.51;100.00;100036.28;5059145;28;20041;-79
2023/08/04 09:37:55;;;;;;;14.77;7.60;;;;;;;17.59;100.00;100049.91;5055899;28;20119;-79
2023/08/04 09:40:24;;;;;;;10.32;7.22;;;;;;;17.63;100.00;100055.88;5069078;28;20052;-80
2023/08/04 09:42:58;;;;;;;11.35;7.40;;;;;;;17.65;100.00;100054.78;5056009;28;20045;-79
2023/08/04 09:45:26;;;;;;;11.88;7.25;;;;;;;17.80;100.00;100056.22;5043749;28;20084;-79
2023/08/04 09:47:59;;;;;;;9.02;6.93;;;;;;;17.93;100.00;100058.75;5039848;28;20044;-80
2023/08/04 09:50:28;;;;;;;10.20;7.35;;;;;;;18.02;100.00;100051.75;5070193;28;20045;-79
2023/08/04 09:53:04;;;;;;;10.25;6.65;;;;;;;18.01;100.00;100055.41;5040667;28;20044;-79
2023/08/04 09:58:10;;;;;;;7.13;6.00;;;;;;;18.09;100.00;100048.47;5042736;28;20041;-85
2023/08/04 10:03:25;;;;;;;8.82;6.97;;;;;;;18.22;100.00;100034.88;5068330;28;20021;-84
2023/08/04 10:05:59;;;;;;;7.97;6.57;;;;;;;18.42;100.00;100055.47;5048791;28;20041;-84
2023/08/04 10:08:36;;;;;;;8.73;5.70;;;;;;;18.36;100.00;100053.31;5039261;28;20452;-86
2023/08/04 10:11:08;;;;;;;6.93;5.47;;;;;;;18.34;100.00;100049.06;5043331;28;20111;-85
2023/08/04 10:13:49;;;;;;;6.35;4.78;;;;;;;18.39;100.00;100020.91;5046087;28;20132;-84
2023/08/04 10:16:21;;;;;;;7.95;4.80;;;;;;;18.55;100.00;100032.00;5040852;28;20105;-83
2023/08/04 10:18:54;;;;;;;7.55;4.55;;;;;;;18.62;100.00;100058.31;5075097;28;20025;-83
2023/08/04 10:21:27;;;;;;;6.40;4.60;;;;;;;18.34;100.00;100041.88;5051663;28;20045;-85
2023/08/04 10:24:00;;;;;;;8.00;4.65;;;;;;;18.35;100.00;100058.81;5045358;28;20117;-85
2023/08/04 10:26:35;;;;;;;5.13;4.03;;;;;;;18.11;100.00;100067.06;5042857;28;20045;-84
2023/08/04 10:29:09;;;;;;;6.25;4.88;;;;;;;18.15;100.00;100074.72;5045375;28;20057;-85
2023/08/04 10:31:46;;;;;;;7.25;4.85;;;;;;;18.05;100.00;100049.69;5027405;28;20049;-83
2023/08/04 10:34:54;;;;;;;7.65;4.22;;;;;;;18.22;100.00;100073.25;5124526;27;21109;-77
2023/08/04 10:37:25;;;;;;;7.72;5.03;;;;;;;18.30;100.00;100074.41;5068735;28;20130;-77
2023/08/04 10:39:59;;;;;;;7.78;4.88;;;;;;;18.34;100.00;100070.50;5077119;28;20450;-77
2023/08/04 10:42:31;;;;;;;6.50;4.18;;;;;;;18.46;100.00;100074.81;5082337;28;20086;-77
2023/08/04 10:45:05;;;;;;;6.20;4.45;;;;;;;18.70;100.00;100069.25;5076231;28;20036;-76
2023/08/04 10:47:41;;;;;;;7.13;4.25;;;;;;;18.90;100.00;100061.16;5084237;28;20044;-76
2023/08/04 10:50:31;;;;;;;7.97;4.13;;;;;;;19.16;100.00;100056.22;5085767;28;20058;-77
2023/08/04 10:53:00;;;;;;;6.80;3.78;;;;;;;19.21;100.00;100053.97;5092414;28;20070;-76
2023/08/04 10:55:28;;;;;;;6.00;4.43;;;;;;;19.23;100.00;100046.63;5079360;28;20481;-76
2023/08/04 10:57:58;;;;;;;6.38;3.80;;;;;;;19.36;100.00;100054.44;5085315;28;20043;-76
2023/08/04 11:00:27;;;;;;;6.03;3.65;;;;;;;19.57;100.00;100067.84;5097492;28;20049;-76
2023/08/04 11:02:55;;;;;;;4.70;3.28;;;;;;;19.58;100.00;100067.69;5085259;28;20078;-76
2023/08/04 11:05:24;;;;;;;5.47;3.45;;;;;;;19.60;100.00;100065.72;5091055;28;20094;-76
2023/08/04 11:07:56;;;;;;;9.18;3.85;;;;;;;19.73;100.00;100072.69;5099318;28;20056;-74
2023/08/04 11:10:26;;;;;;;8.32;3.97;;;;;;;19.82;100.00;100075.41;5076588;28;20044;-76
2023/08/04 11:12:56;;;;;;;4.50;3.35;;;;;;;19.89;100.00;100076.53;5069560;28;20044;-76
2023/08/04 11:15:29;;;;;;;5.20;3.60;;;;;;;19.86;100.00;100076.81;5077058;28;20076;-76
2023/08/04 11:18:02;;;;;;;4.47;3.58;;;;;;;19.91;100.00;100076.38;5077703;28;20045;-76
2023/08/04 11:20:33;;;;;;;5.68;4.20;;;;;;;19.93;100.00;100075.28;5086948;28;20051;-76
2023/08/04 11:23:12;;;;;;;5.50;4.20;;;;;;;20.10;100.00;100078.25;5083884;28;20073;-75
2023/08/04 11:25:45;;;;;;;6.63;3.97;;;;;;;20.16;100.00;100091.13;5099943;28;20052;-76
2023/08/04 11:28:23;;;;;;;7.43;3.75;;;;;;;20.03;100.00;100083.34;5087903;28;20043;-75
2023/08/04 11:31:04;;;;;;;3.58;3.10;;;;;;;19.75;100.00;100085.00;5068350;28;20075;-77
2023/08/04 11:33:35;;;;;;;5.60;4.00;;;;;;;19.63;100.00;100083.41;5086164;28;20052;-75